Impacts TAF Board
For situational awareness. Not to be used for flight planning purposes.
IDs:

KIAD - Washington/Dulles In, VA, US

Issued at 1504 UTC 16 Feb 2019
Updated at 1532 UTC 16 Feb 2019
Potential Impact None Slight Moderate High
Time1452Z 16/16Z 16/17Z 16/18Z 16/19Z 16/20Z 16/21Z 16/22Z 16/23Z 17/00Z 17/01Z 17/02Z 17/03Z 17/04Z>>
Type OBS PRVL PRVL PRVL PRVL PRVL PRVL PRVL PRVL PRVL PRVL PRVL PRVL PRVL
VIS 10 >6 >6 >6 >6 >6 >6 >6 >6 >6 >6 >6 >6 >6
CIG 230 90 90 90 -- -- -- -- -- -- -- -- -- --
Cover BKN BKN BKN BKN SCT SCT SCT SCT SCT SCT SCT SCT SCT SCT
FltCat VFR VFR VFR VFR VFR VFR VFR VFR VFR VFR VFR VFR VFR VFR
WX -- -- -- -- -- -- -- -- -- -- -- -- -- --
WDir 320 340 340 340 350 350 350 350 350 350 350 350 350 350
WSpd 13 8 8 8 8 8 8 8 8 8 8 8 8 8
WGst -- 16 16 16 -- -- -- -- -- -- -- -- -- --
Raw TAF
KIAD 161504Z 1615/1718 34008G16KT P6SM SCT050 BKN090
  FM161900 35008KT P6SM SCT130
  FM170500 35004KT P6SM FEW250
  FM171300 06004KT P6SM SCT200
  FM171500 11005KT P6SM BKN060


Raw METAR
KIAD 161452Z 32013KT 10SM FEW100 BKN230 02/M08 A2994 RMK AO2 SLP139 T00221083 51019
KIAD 161352Z 34014KT 10SM SCT100 BKN200 02/M09 A2993 RMK AO2 SLP136 T00171089
KIAD 161252Z 33014G20KT 10SM BKN085 BKN120 BKN170 02/M09 A2992 RMK AO2 SLP131 T00221089

METAR Board
Radar Display
Forecast Discussion
For situational awareness. Not to be used for flight planning purposes.